Beckett Point, Washington
Current Conditions -  °F | °C
As of 8:56 PM on Sunday 19 Oct 2014 (Local Time) from KNUW Reporting Station
Light Rain Light Rain  
Wind Chill: 65°   Ceiling: 8000
Heat Index: 65°   Visibility: 10mi
Dew Point: 54°   Wind: 16mph
Humidity: 68%   Direction: 190°S
Pressure: 29.67"   Gusts: NA
Location:  48.026°N, 122.859°W
Report Text: KNUW 200356Z 19014KT 10SM -RA FEW055 BKN080 OVC090 18/12 A2967 RMK AO2 PK WND 14031/0315 RAB54 SLP050 P0000 T01830122 $
Loading
Personal Weather Stations






























Interactive Weather Map
Tropical Storm Tracking
New forecast layout! Learn more

10-Day Weather Forecast

Advertisements
Track Severe Weather on mobile